Time;durP1;ratioP1;P1;durP2;ratioP2;P2;SDS_P1;SDS_P2;PMS_P1;PMS_P2;Temp;Humidity;BMP_temperature;BMP_pressure;BME280_temperature;BME280_humidity;BME280_pressure;Samples;Min_cycle;Max_cycle;Signal;HPM_P1;HPM_P2
2022/11/24 00:01:31;;;;;;;57.60;26.50;;;;;;;1.31;80.68;99117.77;209852;1301;140950;-67
2022/11/24 00:06:35;;;;;;;49.70;23.30;;;;;;;1.26;80.85;99112.31;210120;1291;139604;-63
2022/11/24 00:11:38;;;;;;;53.10;22.00;;;;;;;1.26;80.93;99112.84;210125;1298;139606;-64
2022/11/24 00:16:43;;;;;;;58.90;24.60;;;;;;;1.30;80.89;99117.23;209176;1297;140653;-63
2022/11/24 00:21:47;;;;;;;56.90;26.30;;;;;;;1.31;81.16;99114.37;209988;1293;139218;-65
2022/11/24 00:26:51;;;;;;;47.00;23.60;;;;;;;1.31;81.14;99123.05;209915;1296;139496;-66
2022/11/24 00:31:56;;;;;;;53.40;25.70;;;;;;;1.31;81.04;99119.70;210038;1301;139033;-63
2022/11/24 00:36:59;;;;;;;57.20;24.60;;;;;;;1.35;81.28;99117.59;209880;1295;140528;-65
2022/11/24 00:42:03;;;;;;;64.80;24.80;;;;;;;1.37;81.06;99120.59;210191;1300;140410;-64
2022/11/24 00:47:07;;;;;;;67.70;26.00;;;;;;;1.36;81.31;99128.06;209116;1288;141386;-65
2022/11/24 00:52:10;;;;;;;69.90;27.70;;;;;;;1.31;80.78;99134.02;209821;1297;139768;-65
2022/11/24 00:57:14;;;;;;;73.50;26.20;;;;;;;1.26;80.99;99128.23;210129;1297;142750;-67
2022/11/24 01:02:17;;;;;;;74.20;29.20;;;;;;;1.16;81.42;99122.10;209954;1293;139406;-66
2022/11/24 01:07:21;;;;;;;79.80;25.10;;;;;;;1.14;81.42;99129.88;210137;1297;139289;-67
2022/11/24 01:12:25;;;;;;;85.50;29.30;;;;;;;1.19;81.27;99132.79;210009;1298;140791;-66
2022/11/24 01:17:29;;;;;;;61.30;25.60;;;;;;;1.21;81.09;99132.71;209914;1296;141272;-65
2022/11/24 01:22:33;;;;;;;77.70;27.00;;;;;;;1.17;81.24;99131.56;209961;1295;140374;-65
2022/11/24 01:27:37;;;;;;;65.10;25.00;;;;;;;1.16;81.61;99140.64;209981;1288;139534;-65
2022/11/24 01:32:40;;;;;;;64.30;30.60;;;;;;;1.22;81.39;99139.39;209678;1297;140313;-68
2022/11/24 01:37:44;;;;;;;67.10;29.30;;;;;;;1.25;81.53;99141.46;206740;1280;140656;-68
2022/11/24 01:42:51;;;;;;;66.60;26.90;;;;;;;1.26;81.87;99144.30;206574;1303;152712;-66
2022/11/24 01:47:56;;;;;;;72.50;25.80;;;;;;;1.23;81.52;99138.58;209053;1295;139806;-67
2022/11/24 01:52:59;;;;;;;71.80;29.50;;;;;;;1.23;81.57;99138.63;209866;1297;140298;-66
2022/11/24 01:58:17;;;;;;;65.40;27.00;;;;;;;1.21;81.47;99133.60;209884;1299;141089;-68
2022/11/24 02:03:28;;;;;;;77.40;30.00;;;;;;;1.17;81.76;99135.11;210086;1290;140762;-67
2022/11/24 02:08:38;;;;;;;78.30;29.80;;;;;;;1.14;81.32;99137.63;210025;1290;140182;-67
2022/11/24 02:13:44;;;;;;;77.80;32.40;;;;;;;1.15;81.49;99144.10;210096;1297;139789;-67
2022/11/24 02:18:48;;;;;;;84.40;35.90;;;;;;;1.12;81.50;99151.70;210006;1295;140024;-67
2022/11/24 02:24:13;;;;;;;71.10;29.50;;;;;;;1.09;81.74;99149.45;210047;1297;140430;-67
2022/11/24 02:29:18;;;;;;;82.60;28.00;;;;;;;1.08;81.90;99152.67;210095;1296;139929;-67
2022/11/24 02:34:22;;;;;;;84.20;30.30;;;;;;;1.06;81.46;99150.80;210155;1289;140288;-66
2022/11/24 02:39:25;;;;;;;77.00;30.80;;;;;;;1.03;81.50;99148.77;210140;1282;139552;-66
2022/11/24 02:44:34;;;;;;;81.80;31.10;;;;;;;0.97;81.69;99153.89;209338;1281;139580;-65
2022/11/24 02:49:38;;;;;;;71.40;29.00;;;;;;;0.88;81.70;99152.98;209145;1296;139251;-66
2022/11/24 02:54:41;;;;;;;95.00;31.30;;;;;;;0.86;81.99;99143.59;210025;1297;141073;-66
2022/11/24 02:59:45;;;;;;;74.00;29.00;;;;;;;0.87;81.59;99136.17;208930;1295;139523;-67
2022/11/24 03:04:48;;;;;;;87.40;33.30;;;;;;;0.84;81.71;99138.96;210105;1297;140874;-65
2022/11/24 03:09:52;;;;;;;82.90;29.20;;;;;;;0.81;81.81;99140.62;210281;1289;140236;-69
2022/11/24 03:14:55;;;;;;;86.90;33.90;;;;;;;0.81;82.04;99134.09;210078;1297;139787;-66
2022/11/24 03:20:01;;;;;;;83.00;32.20;;;;;;;0.78;81.78;99134.13;210108;1296;139194;-66
2022/11/24 03:25:07;;;;;;;79.80;31.50;;;;;;;0.71;81.74;99129.61;210158;1295;139763;-66
2022/11/24 03:30:11;;;;;;;93.70;33.90;;;;;;;0.69;82.31;99127.50;210111;1296;142146;-67
2022/11/24 03:35:15;;;;;;;76.80;31.50;;;;;;;0.66;81.93;99131.14;210090;1296;139557;-65
2022/11/24 03:40:19;;;;;;;61.40;26.80;;;;;;;0.56;81.64;99140.33;210051;1298;140238;-64
2022/11/24 03:45:25;;;;;;;89.40;29.60;;;;;;;0.45;81.93;99145.91;210116;1295;141922;-65
2022/11/24 03:50:59;;;;;;;87.20;34.80;;;;;;;0.45;82.06;99146.85;210078;1297;247812;-65
2022/11/24 03:56:03;;;;;;;79.90;33.10;;;;;;;0.45;81.98;99151.11;209913;1295;139452;-64
2022/11/24 04:01:07;;;;;;;65.80;27.70;;;;;;;0.43;82.24;99150.81;210180;1294;139502;-65
2022/11/24 04:06:10;;;;;;;68.90;26.80;;;;;;;0.41;82.24;99159.38;210027;1296;140127;-65
2022/11/24 04:12:42;;;;;;;64.10;28.00;;;;;;;0.46;82.18;99165.49;210084;1293;140390;-64
2022/11/24 04:16:38;;;;;;;83.60;33.30;;;;;;;0.47;82.05;99167.45;210090;1300;217568;-67
2022/11/24 04:21:42;;;;;;;65.60;31.70;;;;;;;0.47;82.20;99167.65;210164;1296;140132;-67
2022/11/24 04:26:46;;;;;;;65.30;27.60;;;;;;;0.47;81.82;99169.41;208981;1303;162381;-66
2022/11/24 04:31:50;;;;;;;71.40;30.10;;;;;;;0.48;81.70;99169.11;210178;1296;139986;-66
2022/11/24 04:36:54;;;;;;;64.90;28.00;;;;;;;0.49;82.27;99168.56;206968;1296;141387;-66
2022/11/24 04:41:58;;;;;;;74.30;27.80;;;;;;;0.47;81.92;99168.17;210069;1303;138995;-66
2022/11/24 04:47:03;;;;;;;62.20;27.10;;;;;;;0.42;81.83;99176.74;209868;1294;139589;-65
2022/11/24 04:52:07;;;;;;;64.10;27.20;;;;;;;0.40;81.99;99186.99;210131;1294;139832;-67
2022/11/24 04:57:19;;;;;;;70.40;30.40;;;;;;;0.36;81.96;99188.92;210293;1288;139000;-66
2022/11/24 05:02:23;;;;;;;57.90;27.70;;;;;;;0.30;82.01;99193.74;208625;1287;139876;-66
2022/11/24 05:07:26;;;;;;;63.20;27.90;;;;;;;0.29;81.79;99201.76;210098;1286;139623;-67
2022/11/24 05:12:31;;;;;;;59.40;26.00;;;;;;;0.27;81.90;99210.36;210096;1289;139892;-65
2022/11/24 05:17:37;;;;;;;67.00;29.30;;;;;;;0.17;81.58;99209.61;210029;1294;139283;-66
2022/11/24 05:22:41;;;;;;;77.90;29.00;;;;;;;0.14;81.87;99213.96;210094;1297;139330;-67
2022/11/24 05:27:45;;;;;;;72.00;31.70;;;;;;;0.20;82.03;99218.04;210092;1295;140206;-67
2022/11/24 05:32:48;;;;;;;66.60;28.40;;;;;;;0.25;81.65;99223.00;208978;1297;140105;-66
2022/11/24 05:37:52;;;;;;;63.20;27.60;;;;;;;0.26;81.95;99227.45;210005;1288;140259;-66
2022/11/24 05:42:55;;;;;;;74.20;28.60;;;;;;;0.26;82.31;99231.52;210076;1295;140689;-66
2022/11/24 05:48:07;;;;;;;70.60;32.60;;;;;;;0.30;81.84;99240.13;209955;1297;141267;-64
2022/11/24 05:53:12;;;;;;;80.80;32.70;;;;;;;0.28;81.75;99245.39;209981;1296;141982;-67
2022/11/24 05:58:16;;;;;;;69.70;29.70;;;;;;;0.27;82.15;99249.39;209942;1297;139897;-65
2022/11/24 06:03:20;;;;;;;65.30;25.80;;;;;;;0.26;82.18;99250.97;210199;1297;139822;-67
2022/11/24 06:08:23;;;;;;;70.40;32.60;;;;;;;0.32;81.45;99257.23;209972;1297;141107;-68
2022/11/24 06:13:33;;;;;;;76.00;33.70;;;;;;;0.34;81.66;99257.25;210161;1303;140856;-72
2022/11/24 06:18:38;;;;;;;77.80;32.60;;;;;;;0.35;81.84;99261.66;210096;1297;139860;-69
2022/11/24 06:23:42;;;;;;;68.30;29.10;;;;;;;0.36;81.73;99272.21;209913;1297;139636;-67
2022/11/24 06:28:45;;;;;;;73.30;31.20;;;;;;;0.36;81.68;99274.91;209906;1290;140950;-66
2022/11/24 06:33:50;;;;;;;79.10;32.70;;;;;;;0.31;81.47;99273.13;210179;1295;142406;-66
2022/11/24 06:38:53;;;;;;;75.30;29.40;;;;;;;0.26;81.75;99278.46;210174;1289;139776;-63
2022/11/24 06:43:57;;;;;;;68.10;30.50;;;;;;;0.21;81.81;99278.31;209896;1297;139278;-64
2022/11/24 06:49:01;;;;;;;72.30;30.60;;;;;;;0.23;81.94;99285.11;209890;1295;140707;-64
2022/11/24 06:54:09;;;;;;;70.90;31.80;;;;;;;0.29;81.76;99295.36;209908;1295;140618;-65
2022/11/24 06:59:17;;;;;;;69.30;27.10;;;;;;;0.29;82.00;99303.59;209898;1293;139500;-67
2022/11/24 07:04:20;;;;;;;70.30;31.20;;;;;;;0.25;81.70;99305.11;210026;1293;140788;-68
2022/11/24 07:09:24;;;;;;;64.20;27.10;;;;;;;0.24;81.90;99310.73;210046;1302;141956;-64
2022/11/24 07:14:27;;;;;;;60.80;24.30;;;;;;;0.26;81.78;99312.55;209091;1296;141129;-67
2022/11/24 07:19:30;;;;;;;84.40;35.10;;;;;;;0.33;82.15;99314.91;210131;1294;140941;-67
2022/11/24 07:24:34;;;;;;;65.10;29.00;;;;;;;0.38;81.92;99312.73;210063;1297;141129;-67
2022/11/24 07:29:38;;;;;;;53.10;23.80;;;;;;;0.38;81.98;99318.70;210140;1288;139382;-71
2022/11/24 07:34:41;;;;;;;50.20;24.30;;;;;;;0.35;81.51;99321.12;209490;1295;140116;-70
2022/11/24 07:39:45;;;;;;;53.50;24.00;;;;;;;0.33;81.44;99322.52;208674;1284;140938;-66
2022/11/24 07:44:49;;;;;;;47.50;23.60;;;;;;;0.36;81.86;99326.58;210052;1297;139643;-64
2022/11/24 07:49:53;;;;;;;62.70;29.60;;;;;;;0.38;81.76;99325.91;210148;1296;139800;-66
2022/11/24 07:54:57;;;;;;;53.40;25.70;;;;;;;0.37;81.85;99329.98;209780;1298;139908;-67
2022/11/24 08:00:02;;;;;;;43.90;22.40;;;;;;;0.45;81.42;99329.09;209922;1287;139813;-70
2022/11/24 08:05:07;;;;;;;52.00;25.80;;;;;;;0.54;81.33;99330.61;209915;1297;139972;-65
2022/11/24 08:10:10;;;;;;;54.20;23.30;;;;;;;0.58;81.41;99328.21;210077;1287;139806;-67
2022/11/24 08:15:14;;;;;;;51.60;23.90;;;;;;;0.54;81.10;99330.55;210142;1294;140780;-64
2022/11/24 08:20:19;;;;;;;46.20;20.30;;;;;;;0.55;81.43;99329.63;210033;1297;139221;-63
2022/11/24 08:25:24;;;;;;;42.60;21.50;;;;;;;0.59;80.94;99331.88;209982;1297;140221;-62
2022/11/24 08:30:28;;;;;;;42.50;22.10;;;;;;;0.63;81.47;99333.47;209914;1296;140792;-64
2022/11/24 08:35:36;;;;;;;44.40;21.30;;;;;;;0.63;81.02;99339.08;210037;1303;139354;-67
2022/11/24 08:40:40;;;;;;;;;;;;;;;0.61;81.20;99347.77;208794;1301;139186;-67
2022/11/24 08:45:44;;;;;;;44.00;20.60;;;;;;;0.64;81.31;99342.02;210834;1295;126363;-72
2022/11/24 08:50:48;;;;;;;47.30;21.80;;;;;;;0.69;81.06;99344.00;209856;1301;140089;-67
2022/11/24 08:55:52;;;;;;;41.20;20.20;;;;;;;0.66;80.91;99353.64;210088;1289;141277;-66
2022/11/24 09:01:14;;;;;;;41.80;20.90;;;;;;;0.62;80.87;99355.33;210056;1290;139934;-67
2022/11/24 09:06:22;;;;;;;35.90;18.10;;;;;;;0.60;81.03;99361.94;210064;1297;140359;-67
2022/11/24 09:11:26;;;;;;;34.10;19.90;;;;;;;0.63;80.79;99366.02;209538;1297;141490;-64
2022/11/24 09:16:29;;;;;;;32.00;17.40;;;;;;;0.66;81.04;99369.02;209205;1287;140396;-67
2022/11/24 09:21:37;;;;;;;36.20;19.80;;;;;;;0.67;80.88;99367.46;210317;1290;139505;-65
2022/11/24 09:26:41;;;;;;;43.80;23.10;;;;;;;0.66;80.51;99367.48;210043;1297;139744;-69
2022/11/24 09:31:50;;;;;;;33.10;17.10;;;;;;;0.64;80.63;99369.64;209860;1305;140246;-68
2022/11/24 09:36:54;;;;;;;34.90;18.60;;;;;;;0.67;80.69;99366.65;207761;1295;139966;-67
2022/11/24 09:42:15;;;;;;;40.40;21.90;;;;;;;0.74;80.89;99376.55;209832;1295;139496;-67
2022/11/24 09:47:46;;;;;;;36.70;21.30;;;;;;;0.76;80.75;99378.02;210168;1297;139865;-66
2022/11/24 09:53:06;;;;;;;35.60;19.20;;;;;;;0.78;80.67;99381.96;210042;1292;140176;-67
2022/11/24 09:58:22;;;;;;;40.90;20.90;;;;;;;0.84;80.63;99379.87;206783;1290;139164;-68
2022/11/24 10:03:38;;;;;;;48.20;21.70;;;;;;;0.95;80.44;99374.71;208639;1289;140451;-65
2022/11/24 10:08:52;;;;;;;36.40;17.50;;;;;;;1.07;80.47;99382.06;210002;1287;139399;-66
2022/11/24 10:14:09;;;;;;;32.30;18.40;;;;;;;1.13;80.78;99385.38;210094;1297;139248;-70
2022/11/24 10:19:34;;;;;;;32.10;18.30;;;;;;;1.14;80.88;99381.48;210165;1295;139524;-71
2022/11/24 10:25:13;;;;;;;34.60;17.50;;;;;;;1.12;80.67;99382.46;209998;1296;138971;-72
2022/11/24 10:30:20;;;;;;;36.80;21.80;;;;;;;1.13;80.52;99387.60;210019;1297;236997;-70
2022/11/24 10:35:36;;;;;;;32.30;17.40;;;;;;;1.16;80.43;99384.33;209994;1298;139962;-70
2022/11/24 10:40:44;;;;;;;52.10;29.90;;;;;;;1.15;80.40;99381.65;210008;1296;139553;-70
2022/11/24 10:46:17;;;;;;;38.20;21.40;;;;;;;1.17;80.81;99382.45;209966;1302;245000;-70
2022/11/24 10:51:21;;;;;;;35.40;17.80;;;;;;;1.21;80.72;99383.52;210190;1300;150369;-70
2022/11/24 10:56:24;;;;;;;30.40;16.30;;;;;;;1.26;80.78;99383.88;207110;1288;140093;-70
2022/11/24 11:01:31;;;;;;;33.30;17.80;;;;;;;1.34;80.56;99385.23;207547;1289;570984;-68
2022/11/24 11:06:36;;;;;;;32.90;15.90;;;;;;;1.33;80.64;99385.55;210104;1290;141234;-67
2022/11/24 11:11:41;;;;;;;31.80;17.40;;;;;;;1.27;80.24;99392.53;208083;1288;140655;-66
2022/11/24 11:16:52;;;;;;;33.00;18.50;;;;;;;1.21;80.37;99389.73;209944;1290;140300;-71
2022/11/24 11:22:08;;;;;;;40.20;20.00;;;;;;;1.23;80.99;99385.46;210051;1295;140664;-67
2022/11/24 11:27:16;;;;;;;39.90;22.80;;;;;;;1.30;80.79;99383.32;210245;1294;140807;-70
2022/11/24 11:32:26;;;;;;;43.30;21.50;;;;;;;1.35;80.68;99382.70;209074;1298;140987;-69
2022/11/24 11:37:52;;;;;;;49.50;25.90;;;;;;;1.39;80.71;99390.33;209782;1297;141180;-68
2022/11/24 11:43:20;;;;;;;42.00;22.20;;;;;;;1.41;80.61;99386.89;209813;1291;140118;-69
2022/11/24 11:48:33;;;;;;;40.20;21.30;;;;;;;1.40;80.29;99390.84;210104;1299;139516;-69
2022/11/24 11:54:23;;;;;;;38.90;18.50;;;;;;;1.40;80.26;99391.66;209939;1297;246588;-66
2022/11/24 11:59:26;;;;;;;42.00;21.90;;;;;;;1.42;80.04;99396.60;210117;1297;142898;-68
2022/11/24 12:04:32;;;;;;;41.00;21.30;;;;;;;1.40;79.76;99396.79;210013;1294;141701;-67
2022/11/24 12:10:06;;;;;;;40.80;22.10;;;;;;;1.42;80.31;99391.87;210093;1303;139779;-68
2022/11/24 12:15:19;;;;;;;33.60;19.40;;;;;;;1.45;80.02;99392.33;210067;1293;233688;-67
2022/11/24 12:20:51;;;;;;;41.40;21.70;;;;;;;1.51;80.12;99393.52;210060;1295;140150;-67
2022/11/24 12:26:21;;;;;;;36.90;21.20;;;;;;;1.50;79.94;99400.42;210037;1293;245109;-67
2022/11/24 12:31:51;;;;;;;36.60;21.00;;;;;;;1.43;80.03;99400.82;210109;1305;141249;-68
2022/11/24 12:37:24;;;;;;;30.50;18.90;;;;;;;1.39;80.02;99402.55;210090;1299;223099;-69
2022/11/24 12:42:53;;;;;;;39.40;19.90;;;;;;;1.29;80.15;99403.84;210012;1296;141573;-69
2022/11/24 12:48:18;;;;;;;34.00;17.60;;;;;;;1.31;79.86;99408.70;209937;1295;141216;-67
2022/11/24 12:53:29;;;;;;;33.20;17.70;;;;;;;1.36;80.07;99408.69;210184;1306;140167;-69
2022/11/24 12:58:55;;;;;;;39.00;21.70;;;;;;;1.35;79.77;99418.77;209982;1295;141359;-68
2022/11/24 13:04:34;;;;;;;28.20;16.80;;;;;;;1.26;79.93;99421.52;210288;1295;140753;-67
2022/11/24 13:10:17;;;;;;;39.70;19.60;;;;;;;1.25;80.31;99422.77;209952;1302;236658;-68
2022/11/24 13:15:22;;;;;;;26.20;14.70;;;;;;;1.29;80.23;99419.06;207634;1298;246388;-68
2022/11/24 13:20:46;;;;;;;31.80;17.50;;;;;;;1.29;80.12;99426.09;206709;1302;140799;-67
2022/11/24 13:26:14;;;;;;;28.40;17.50;;;;;;;1.22;79.86;99428.06;206602;1290;140602;-68
2022/11/24 13:31:21;;;;;;;31.20;18.50;;;;;;;1.10;80.23;99430.62;207717;1300;140249;-69
2022/11/24 13:36:27;;;;;;;33.90;17.90;;;;;;;1.01;80.28;99433.50;209342;1295;140132;-71
2022/11/24 13:41:31;;;;;;;34.20;19.20;;;;;;;1.00;80.22;99433.41;210152;1296;140969;-67
2022/11/24 13:47:00;;;;;;;31.40;19.60;;;;;;;1.03;80.45;99438.50;209879;1295;140667;-68
2022/11/24 13:52:47;;;;;;;38.50;20.40;;;;;;;1.05;80.19;99438.61;209450;1293;141304;-67
2022/11/24 13:57:55;;;;;;;38.00;21.20;;;;;;;1.02;80.12;99446.36;208217;1300;235474;-66
2022/11/24 14:03:22;;;;;;;36.50;18.20;;;;;;;0.99;80.55;99447.33;209939;1295;140736;-68
2022/11/24 14:08:30;;;;;;;33.20;19.90;;;;;;;1.02;80.46;99446.09;209970;1296;140725;-67
2022/11/24 14:13:34;;;;;;;31.50;21.50;;;;;;;0.99;80.02;99446.23;210033;1298;141919;-68
2022/11/24 14:18:40;;;;;;;40.50;20.40;;;;;;;0.95;80.19;99454.58;210003;1300;139346;-70
2022/11/24 14:23:47;;;;;;;30.10;16.70;;;;;;;0.91;80.28;99461.23;209946;1295;141248;-69
2022/11/24 14:28:53;;;;;;;30.50;17.60;;;;;;;0.88;80.53;99465.92;209920;1301;141054;-65
2022/11/24 14:34:10;;;;;;;27.20;15.70;;;;;;;0.87;80.24;99465.81;210207;1300;140436;-67
2022/11/24 14:39:19;;;;;;;37.00;18.10;;;;;;;0.88;80.40;99469.30;210093;1301;139826;-67
2022/11/24 14:44:55;;;;;;;29.90;17.30;;;;;;;0.89;80.81;99471.79;209842;1298;140784;-65
2022/11/24 14:50:21;;;;;;;38.00;19.90;;;;;;;0.87;80.35;99482.77;210099;1298;139785;-65
2022/11/24 14:55:30;;;;;;;36.20;18.70;;;;;;;0.82;80.25;99485.80;209954;1297;140233;-68
2022/11/24 15:00:34;;;;;;;38.10;20.80;;;;;;;0.84;80.75;99488.66;209945;1297;141322;-68
2022/11/24 15:05:57;;;;;;;38.80;23.40;;;;;;;0.86;80.61;99491.52;207877;1289;140129;-67
2022/11/24 15:11:04;;;;;;;37.80;19.60;;;;;;;0.87;81.05;99494.61;210060;1296;141901;-67
2022/11/24 15:16:18;;;;;;;40.30;22.60;;;;;;;0.86;81.00;99504.23;210080;1296;140697;-69
2022/11/24 15:21:35;;;;;;;42.90;23.30;;;;;;;0.83;81.01;99508.91;208038;1288;139810;-67
2022/11/24 15:26:39;;;;;;;54.80;24.40;;;;;;;0.83;80.90;99518.32;208274;1302;141232;-67
2022/11/24 15:31:44;;;;;;;40.10;23.10;;;;;;;0.85;81.17;99526.66;209960;1297;140578;-66
2022/11/24 15:36:55;;;;;;;49.70;25.80;;;;;;;0.84;80.92;99532.22;210008;1295;236668;-67
2022/11/24 15:41:58;;;;;;;42.70;23.30;;;;;;;0.80;81.21;99533.89;208055;1297;139700;-65
2022/11/24 15:47:03;;;;;;;40.80;26.20;;;;;;;0.79;81.23;99535.31;208891;1295;139760;-71
2022/11/24 15:52:09;;;;;;;44.10;23.80;;;;;;;0.78;81.52;99539.55;210165;1286;141227;-67
2022/11/24 15:57:15;;;;;;;44.10;22.70;;;;;;;0.79;81.54;99549.41;208719;1303;151176;-68
2022/11/24 16:02:21;;;;;;;41.90;23.30;;;;;;;0.78;81.19;99552.30;208848;1295;141681;-67
2022/11/24 16:07:26;;;;;;;40.90;21.50;;;;;;;0.78;81.26;99554.56;206928;1284;140732;-67
2022/11/24 16:12:31;;;;;;;39.00;22.00;;;;;;;0.75;81.55;99551.23;207771;1288;141650;-68
2022/11/24 16:17:36;;;;;;;37.80;22.00;;;;;;;0.74;81.68;99554.76;209961;1295;141643;-69
2022/11/24 16:22:40;;;;;;;46.70;26.30;;;;;;;0.73;81.37;99559.03;209787;1303;141664;-67
2022/11/24 16:27:46;;;;;;;52.30;26.80;;;;;;;0.74;81.34;99562.63;209838;1296;142180;-69
2022/11/24 16:32:50;;;;;;;45.20;22.60;;;;;;;0.71;81.38;99560.65;209931;1296;141707;-69
2022/11/24 16:37:55;;;;;;;43.00;23.90;;;;;;;0.66;81.50;99562.98;209896;1297;141614;-70
2022/11/24 16:43:00;;;;;;;43.40;25.60;;;;;;;0.67;81.13;99570.21;209884;1293;141001;-69
2022/11/24 16:48:04;;;;;;;42.20;23.50;;;;;;;0.70;81.46;99577.25;209987;1284;142073;-68
2022/11/24 16:53:08;;;;;;;44.80;24.00;;;;;;;0.73;81.39;99580.94;210137;1290;140585;-68
2022/11/24 16:58:13;;;;;;;49.70;24.00;;;;;;;0.72;81.61;99583.63;210238;1302;141510;-68
2022/11/24 17:03:21;;;;;;;45.40;25.30;;;;;;;0.71;81.54;99582.55;210022;1293;139372;-65
2022/11/24 17:08:30;;;;;;;47.10;25.60;;;;;;;0.68;81.63;99587.36;209856;1301;139896;-66
2022/11/24 17:13:37;;;;;;;45.80;28.30;;;;;;;0.66;81.19;99593.01;210116;1281;141224;-65
2022/11/24 17:18:43;;;;;;;48.30;24.40;;;;;;;0.70;81.38;99600.14;210029;1285;140785;-65
2022/11/24 17:23:57;;;;;;;50.40;23.40;;;;;;;0.60;81.25;99596.50;210117;1298;139669;-68
2022/11/24 17:29:02;;;;;;;41.90;23.40;;;;;;;0.48;81.23;99598.65;209808;1297;140432;-66
2022/11/24 17:34:08;;;;;;;41.80;22.90;;;;;;;0.52;81.68;99605.64;210035;1294;141630;-66
2022/11/24 17:39:12;;;;;;;38.60;19.80;;;;;;;0.56;81.88;99597.36;210103;1287;139856;-66
2022/11/24 17:44:23;;;;;;;33.80;17.80;;;;;;;0.44;81.04;99596.80;210128;1288;140252;-67
2022/11/24 17:49:30;;;;;;;40.90;21.20;;;;;;;0.29;80.87;99596.48;209998;1280;225177;-70
2022/11/24 17:54:38;;;;;;;51.50;30.20;;;;;;;0.29;81.31;99602.32;209639;1295;140022;-70
2022/11/24 17:59:52;;;;;;;51.60;29.50;;;;;;;0.20;81.21;99609.45;209871;1291;140496;-68
2022/11/24 18:04:57;;;;;;;48.20;24.40;;;;;;;0.20;81.89;99617.15;209919;1295;139994;-66
2022/11/24 18:10:05;;;;;;;45.00;21.90;;;;;;;0.25;82.06;99619.10;207542;1288;139699;-66
2022/11/24 18:15:12;;;;;;;59.70;29.60;;;;;;;0.29;81.99;99611.61;209807;1288;140965;-68
2022/11/24 18:20:21;;;;;;;56.30;29.10;;;;;;;0.36;82.15;99603.27;210143;1296;140393;-68
2022/11/24 18:25:26;;;;;;;55.80;30.70;;;;;;;0.31;81.81;99614.10;210098;1295;140298;-68
2022/11/24 18:30:31;;;;;;;52.90;31.00;;;;;;;0.32;82.05;99614.91;210036;1294;139706;-68
2022/11/24 18:35:35;;;;;;;58.90;26.70;;;;;;;0.32;82.10;99630.08;209878;1297;139760;-68
2022/11/24 18:40:40;;;;;;;54.90;29.10;;;;;;;0.31;82.13;99647.21;209880;1296;140407;-68
2022/11/24 18:45:46;;;;;;;60.50;31.30;;;;;;;0.36;82.28;99651.67;210001;1295;141976;-68
2022/11/24 18:50:55;;;;;;;50.90;28.10;;;;;;;0.44;82.63;99643.34;210033;1294;140769;-68
2022/11/24 18:56:07;;;;;;;51.90;30.10;;;;;;;0.43;82.10;99637.52;209935;1295;248650;-68
2022/11/24 19:01:15;;;;;;;50.50;27.90;;;;;;;0.44;82.33;99655.90;210014;1298;140022;-68
2022/11/24 19:06:30;;;;;;;58.40;31.10;;;;;;;0.46;82.25;99659.69;208933;1288;140547;-67
2022/11/24 19:11:41;;;;;;;58.10;29.40;;;;;;;0.43;82.14;99665.08;208662;1301;203328;-67
2022/11/24 19:16:48;;;;;;;57.20;28.00;;;;;;;0.46;82.82;99674.21;209963;1298;139354;-67
2022/11/24 19:21:55;;;;;;;54.50;28.70;;;;;;;0.51;82.47;99679.55;208968;1295;140359;-67
2022/11/24 19:27:01;;;;;;;50.10;26.50;;;;;;;0.49;82.41;99674.60;209962;1294;140905;-67
2022/11/24 19:32:13;;;;;;;44.00;22.70;;;;;;;0.42;82.38;99685.34;210130;1302;142200;-67
2022/11/24 19:37:24;;;;;;;43.80;22.70;;;;;;;0.34;82.37;99687.27;209699;1300;139999;-67
2022/11/24 19:42:28;;;;;;;43.00;21.30;;;;;;;0.27;82.23;99687.98;209944;1297;140543;-67
2022/11/24 19:47:33;;;;;;;43.10;23.70;;;;;;;0.29;82.45;99691.27;210090;1295;140036;-68
2022/11/24 19:52:38;;;;;;;60.10;31.10;;;;;;;0.31;82.38;99689.98;209990;1288;140656;-67
2022/11/24 19:57:42;;;;;;;53.90;29.10;;;;;;;0.28;82.63;99692.23;209936;1288;140082;-66
2022/11/24 20:02:48;;;;;;;45.20;28.10;;;;;;;0.31;82.67;99699.57;210046;1281;139399;-67
2022/11/24 20:07:54;;;;;;;55.40;27.90;;;;;;;0.32;82.88;99701.90;209893;1290;139996;-67
2022/11/24 20:13:03;;;;;;;50.20;26.80;;;;;;;0.44;82.68;99700.35;210106;1301;248930;-67
2022/11/24 20:18:08;;;;;;;55.70;28.50;;;;;;;0.54;82.85;99702.88;209971;1287;140885;-66
2022/11/24 20:23:14;;;;;;;58.10;29.10;;;;;;;0.55;82.81;99708.02;210221;1302;140507;-67
2022/11/24 20:28:21;;;;;;;45.10;26.60;;;;;;;0.56;82.91;99712.77;208563;1295;140460;-66
2022/11/24 20:33:25;;;;;;;50.80;23.70;;;;;;;0.53;82.63;99713.63;210119;1296;140593;-67
2022/11/24 20:38:33;;;;;;;46.20;24.00;;;;;;;0.56;82.67;99715.91;210005;1294;141201;-67
2022/11/24 20:43:39;;;;;;;54.60;27.90;;;;;;;0.56;82.63;99713.82;210054;1302;161441;-67
2022/11/24 20:48:43;;;;;;;52.50;23.40;;;;;;;0.57;82.77;99714.20;209894;1296;220403;-67
2022/11/24 20:53:49;;;;;;;51.80;28.90;;;;;;;0.59;82.78;99714.17;209957;1296;139485;-67
2022/11/24 20:58:54;;;;;;;52.40;29.30;;;;;;;0.56;83.24;99721.98;209995;1296;140116;-67
2022/11/24 21:03:58;;;;;;;53.30;25.30;;;;;;;0.61;83.08;99727.22;210161;1287;140667;-67
2022/11/24 21:09:04;;;;;;;53.00;25.00;;;;;;;0.72;83.13;99723.95;209924;1288;140528;-67
2022/11/24 21:14:08;;;;;;;61.10;29.00;;;;;;;0.76;83.09;99721.71;209857;1293;139715;-67
2022/11/24 21:19:13;;;;;;;61.40;27.60;;;;;;;0.80;83.05;99718.45;210048;1292;139896;-67
2022/11/24 21:24:20;;;;;;;65.50;31.00;;;;;;;0.78;83.24;99725.31;209988;1296;140931;-68
2022/11/24 21:29:24;;;;;;;58.80;27.10;;;;;;;0.76;82.98;99725.90;209956;1297;142514;-67
2022/11/24 21:34:28;;;;;;;62.60;30.60;;;;;;;0.78;83.34;99731.94;210017;1294;140897;-67
2022/11/24 21:39:32;;;;;;;66.50;31.60;;;;;;;0.86;82.94;99730.69;210265;1288;141576;-67
2022/11/24 21:44:36;;;;;;;69.90;34.60;;;;;;;0.89;83.62;99735.34;209249;1288;141587;-67
2022/11/24 21:49:39;;;;;;;63.40;30.00;;;;;;;0.90;83.55;99740.25;210198;1298;139207;-67
2022/11/24 21:54:43;;;;;;;68.70;29.50;;;;;;;0.90;83.22;99743.36;209527;1288;143228;-67
2022/11/24 21:59:46;;;;;;;63.90;30.50;;;;;;;0.92;83.34;99743.63;209978;1295;141343;-67
2022/11/24 22:04:50;;;;;;;70.00;32.50;;;;;;;0.97;83.21;99742.34;210204;1294;140338;-67
2022/11/24 22:09:53;;;;;;;88.00;39.50;;;;;;;0.98;83.41;99742.80;210195;1296;139574;-67
2022/11/24 22:14:57;;;;;;;77.50;35.70;;;;;;;0.98;83.25;99747.53;210011;1288;140269;-67
2022/11/24 22:20:00;;;;;;;79.20;32.70;;;;;;;0.97;83.33;99758.13;209956;1296;141079;-67
2022/11/24 22:25:05;;;;;;;80.60;31.50;;;;;;;1.02;83.36;99757.95;210026;1291;139971;-67
2022/11/24 22:30:09;;;;;;;76.40;35.10;;;;;;;1.08;83.29;99759.20;209955;1288;140024;-67
2022/11/24 22:35:12;;;;;;;93.00;40.00;;;;;;;1.10;83.57;99767.95;210113;1297;140003;-67
2022/11/24 22:40:16;;;;;;;88.40;34.80;;;;;;;1.13;83.51;99767.09;210153;1293;139961;-67
2022/11/24 22:45:20;;;;;;;88.20;36.00;;;;;;;1.14;83.55;99764.00;210032;1290;140054;-66
2022/11/24 22:50:24;;;;;;;92.40;39.60;;;;;;;1.17;83.32;99768.14;210124;1294;140899;-67
2022/11/24 22:55:28;;;;;;;81.60;38.20;;;;;;;1.16;83.32;99767.98;210065;1297;139910;-67
2022/11/24 23:00:31;;;;;;;73.00;31.60;;;;;;;1.13;83.30;99769.35;209879;1286;455586;-67
2022/11/24 23:05:35;;;;;;;89.70;36.10;;;;;;;1.09;83.45;99771.08;210163;1288;140257;-68
2022/11/24 23:10:38;;;;;;;77.30;32.10;;;;;;;1.08;83.10;99777.05;209954;1297;141119;-67
2022/11/24 23:15:43;;;;;;;86.10;33.40;;;;;;;1.12;83.49;99780.29;210054;1297;140487;-67
2022/11/24 23:20:46;;;;;;;85.70;36.80;;;;;;;1.11;83.40;99774.64;209996;1287;139345;-68